createdAt,value
2023-04-16T00:01:08.566Z,6.75
2023-04-16T00:03:35.313Z,7.18
2023-04-16T00:06:02.107Z,6.93
2023-04-16T00:08:28.486Z,6.97
2023-04-16T00:10:54.934Z,7.20
2023-04-16T00:13:22.541Z,7.32
2023-04-16T00:15:49.010Z,6.90
2023-04-16T00:18:15.393Z,7.13
2023-04-16T00:20:41.843Z,7.80
2023-04-16T00:23:08.200Z,7.28
2023-04-16T00:25:34.694Z,7.20
2023-04-16T00:28:01.139Z,7.40
2023-04-16T00:30:27.658Z,7.23
2023-04-16T00:32:54.189Z,7.00
2023-04-16T00:35:20.654Z,7.47
2023-04-16T00:37:47.234Z,7.15
2023-04-16T00:40:13.725Z,7.43
2023-04-16T00:42:40.321Z,7.60
2023-04-16T00:45:07.398Z,7.53
2023-04-16T00:47:33.960Z,7.28
2023-04-16T00:50:00.491Z,7.82
2023-04-16T00:52:27.554Z,7.53
2023-04-16T00:54:54.038Z,6.83
2023-04-16T00:57:23.932Z,7.80
2023-04-16T00:59:51.328Z,8.00
2023-04-16T01:02:18.003Z,7.43
2023-04-16T01:04:44.571Z,7.05
2023-04-16T01:07:11.233Z,8.10
2023-04-16T01:09:37.664Z,7.13
2023-04-16T01:12:04.228Z,6.88
2023-04-16T01:14:36.059Z,7.47
2023-04-16T01:17:03.864Z,6.30
2023-04-16T01:19:36.316Z,7.30
2023-04-16T01:22:03.806Z,7.30
2023-04-16T01:24:30.699Z,7.32
2023-04-16T01:27:00.589Z,7.60
2023-04-16T01:29:27.268Z,7.70
2023-04-16T01:31:54.296Z,7.17
2023-04-16T01:34:21.084Z,7.38
2023-04-16T01:36:47.518Z,7.07
2023-04-16T01:39:16.271Z,8.43
2023-04-16T01:41:43.252Z,7.13
2023-04-16T01:44:09.712Z,7.30
2023-04-16T01:46:37.717Z,7.28
2023-04-16T01:49:05.172Z,8.27
2023-04-16T01:51:32.288Z,7.25
2023-04-16T01:53:58.926Z,7.70
2023-04-16T01:56:25.990Z,7.67
2023-04-16T01:58:53.184Z,7.63
2023-04-16T02:01:20.100Z,7.90
2023-04-16T02:03:47.521Z,7.72
2023-04-16T02:06:14.744Z,7.85
2023-04-16T02:08:41.806Z,7.77
2023-04-16T02:11:08.214Z,8.30
2023-04-16T02:13:34.857Z,8.68
2023-04-16T02:16:02.413Z,8.88
2023-04-16T02:18:28.900Z,8.18
2023-04-16T02:20:58.441Z,8.13
2023-04-16T02:23:24.905Z,8.20
2023-04-16T02:25:51.622Z,8.48
2023-04-16T02:28:18.049Z,8.85
2023-04-16T02:30:44.548Z,8.77
2023-04-16T02:33:12.180Z,8.93
2023-04-16T02:35:39.630Z,8.07
2023-04-16T02:38:06.510Z,8.80
2023-04-16T02:40:33.169Z,8.85
2023-04-16T02:42:59.748Z,10.32
2023-04-16T02:45:26.147Z,9.37
2023-04-16T02:47:52.597Z,8.63
2023-04-16T02:50:19.176Z,7.78
2023-04-16T02:52:46.016Z,9.68
2023-04-16T02:55:12.480Z,9.00
2023-04-16T02:57:39.003Z,8.80
2023-04-16T03:00:06.115Z,9.35
2023-04-16T03:02:32.671Z,8.23
2023-04-16T03:04:59.396Z,9.15
2023-04-16T03:07:26.180Z,8.80
2023-04-16T03:09:52.746Z,9.80
2023-04-16T03:12:19.187Z,9.70
2023-04-16T03:14:45.648Z,9.75
2023-04-16T03:17:12.218Z,9.50
2023-04-16T03:19:38.612Z,10.57
2023-04-16T03:22:05.382Z,9.73
2023-04-16T03:24:32.184Z,10.80
2023-04-16T03:26:58.943Z,10.13
2023-04-16T03:29:26.704Z,10.70
2023-04-16T03:31:53.368Z,10.05
2023-04-16T03:34:19.881Z,9.20
2023-04-16T03:36:46.452Z,9.95
2023-04-16T03:39:15.309Z,9.93
2023-04-16T03:41:41.875Z,10.40
2023-04-16T03:44:08.761Z,9.88
2023-04-16T03:46:35.478Z,9.97
2023-04-16T03:49:01.895Z,9.95
2023-04-16T03:51:28.449Z,9.88
2023-04-16T03:53:55.125Z,8.93
2023-04-16T03:56:21.564Z,8.80
2023-04-16T03:58:48.109Z,8.23
2023-04-16T04:01:14.490Z,9.23
2023-04-16T04:03:41.140Z,8.50
2023-04-16T04:06:08.676Z,8.88
2023-04-16T04:08:35.543Z,9.00
2023-04-16T04:11:02.037Z,8.60
2023-04-16T04:13:28.560Z,8.43
2023-04-16T04:15:55.481Z,8.57
2023-04-16T04:18:22.035Z,7.63
2023-04-16T04:20:48.616Z,8.63
2023-04-16T04:23:15.591Z,8.90
2023-04-16T04:25:42.085Z,8.20
2023-04-16T04:28:08.562Z,8.40
2023-04-16T04:30:35.982Z,8.25
2023-04-16T04:33:02.710Z,8.57
2023-04-16T04:35:29.217Z,8.43
2023-04-16T04:37:55.726Z,7.88
2023-04-16T04:40:22.361Z,8.43
2023-04-16T04:42:49.048Z,7.68
2023-04-16T04:45:16.091Z,8.38
2023-04-16T04:47:42.754Z,8.13
2023-04-16T04:50:09.806Z,8.55
2023-04-16T04:52:36.386Z,7.63
2023-04-16T04:55:02.942Z,8.10
2023-04-16T04:57:29.303Z,7.70
2023-04-16T04:59:55.931Z,7.77
2023-04-16T05:02:22.524Z,7.82
2023-04-16T05:04:49.068Z,7.40
2023-04-16T05:07:16.279Z,7.80
2023-04-16T05:09:42.865Z,8.55
2023-04-16T05:12:09.444Z,7.90
2023-04-16T05:14:36.326Z,8.23
2023-04-16T05:17:02.962Z,8.25
2023-04-16T05:19:29.706Z,8.10
2023-04-16T05:21:56.252Z,7.85
2023-04-16T05:24:23.256Z,8.07
2023-04-16T05:26:49.862Z,8.07
2023-04-16T05:29:16.287Z,6.95
2023-04-16T05:31:43.067Z,8.07
2023-04-16T05:34:09.606Z,7.72
2023-04-16T05:36:36.045Z,8.00
2023-04-16T05:39:02.870Z,7.65
2023-04-16T05:41:29.396Z,7.78
2023-04-16T05:43:56.172Z,8.60
2023-04-16T05:46:22.767Z,7.18
2023-04-16T05:48:49.322Z,8.07
2023-04-16T05:51:15.874Z,8.85
2023-04-16T05:53:42.362Z,8.45
2023-04-16T05:56:09.079Z,8.40
2023-04-16T05:58:35.533Z,8.00
2023-04-16T06:01:02.206Z,8.57
2023-04-16T06:03:28.827Z,8.55
2023-04-16T06:05:55.588Z,8.63
2023-04-16T06:08:22.188Z,9.05
2023-04-16T06:10:49.184Z,8.13
2023-04-16T06:13:15.657Z,9.30
2023-04-16T06:15:42.338Z,8.23
2023-04-16T06:18:09.206Z,8.48
2023-04-16T06:20:36.256Z,9.02
2023-04-16T06:23:02.749Z,10.45
2023-04-16T06:25:29.321Z,9.37
2023-04-16T06:27:56.027Z,9.23
2023-04-16T06:30:22.493Z,8.30
2023-04-16T06:32:49.322Z,8.30
2023-04-16T06:35:16.062Z,9.45
2023-04-16T06:37:42.577Z,8.07
2023-04-16T06:40:09.475Z,9.48
2023-04-16T06:42:36.085Z,9.98
2023-04-16T06:45:02.701Z,10.38
2023-04-16T06:47:29.194Z,10.43
2023-04-16T06:49:55.671Z,9.43
2023-04-16T06:52:22.250Z,22.58
2023-04-16T06:54:48.778Z,12.07
2023-04-16T06:57:16.169Z,10.68
2023-04-16T06:59:42.829Z,10.30
2023-04-16T07:02:10.481Z,11.40
2023-04-16T07:04:37.310Z,12.35
2023-04-16T07:07:03.847Z,12.00
2023-04-16T07:09:30.623Z,11.77
2023-04-16T07:11:57.134Z,9.98
2023-04-16T07:14:23.614Z,10.77
2023-04-16T07:16:50.210Z,10.35
2023-04-16T07:19:16.795Z,9.38
2023-04-16T07:21:43.728Z,10.00
2023-04-16T07:24:11.610Z,11.73
2023-04-16T07:26:38.110Z,15.30
2023-04-16T07:29:04.584Z,10.38
2023-04-16T07:31:31.374Z,10.45
2023-04-16T07:33:58.383Z,9.55
2023-04-16T07:36:25.229Z,11.38
2023-04-16T07:38:51.656Z,10.57
2023-04-16T07:41:18.134Z,10.13
2023-04-16T07:43:44.542Z,10.02
2023-04-16T07:46:11.256Z,9.30
2023-04-16T07:48:37.659Z,11.90
2023-04-16T07:51:04.116Z,13.60
2023-04-16T07:53:30.732Z,11.52
2023-04-16T07:55:57.187Z,10.77
2023-04-16T07:58:23.731Z,11.75
2023-04-16T08:00:51.056Z,10.98
2023-04-16T08:03:18.282Z,10.33
2023-04-16T08:05:45.185Z,9.95
2023-04-16T08:08:11.709Z,10.43
2023-04-16T08:10:39.265Z,11.88
2023-04-16T08:13:05.926Z,10.75
2023-04-16T08:15:32.471Z,10.57
2023-04-16T08:17:59.655Z,11.23
2023-04-16T08:20:26.259Z,11.20
2023-04-16T08:22:54.194Z,12.35
2023-04-16T08:25:20.821Z,11.63
2023-04-16T08:27:50.133Z,10.87
2023-04-16T08:30:16.714Z,10.68
2023-04-16T08:32:43.797Z,10.65
2023-04-16T08:35:10.348Z,11.40
2023-04-16T08:37:36.779Z,11.38
2023-04-16T08:40:03.653Z,9.93
2023-04-16T08:42:34.027Z,10.65
2023-04-16T08:45:13.233Z,9.95
2023-04-16T08:47:41.328Z,10.55
2023-04-16T08:50:11.204Z,11.00
2023-04-16T08:52:43.285Z,11.17
2023-04-16T08:55:17.122Z,10.15
2023-04-16T08:57:58.141Z,12.30
2023-04-16T09:00:25.352Z,17.10
2023-04-16T09:02:53.061Z,9.98
2023-04-16T09:05:22.654Z,10.20
2023-04-16T09:07:49.253Z,10.32
2023-04-16T09:10:16.451Z,10.73
2023-04-16T09:12:43.527Z,10.18
2023-04-16T09:15:11.545Z,11.00
2023-04-16T09:17:38.827Z,10.40
2023-04-16T09:20:08.718Z,10.60
2023-04-16T09:22:36.223Z,9.80
2023-04-16T09:25:02.876Z,10.57
2023-04-16T09:27:30.335Z,9.27
2023-04-16T09:29:56.853Z,9.53
2023-04-16T09:32:27.651Z,10.60
2023-04-16T09:35:01.851Z,9.93
2023-04-16T09:37:30.442Z,8.95
2023-04-16T09:40:04.647Z,9.73
2023-04-16T09:42:33.478Z,9.50
2023-04-16T09:45:02.638Z,10.20
2023-04-16T09:47:44.782Z,9.43
2023-04-16T09:50:19.257Z,9.52
2023-04-16T09:52:49.525Z,9.73
2023-04-16T09:55:15.967Z,10.10
2023-04-16T09:57:42.486Z,9.52
2023-04-16T10:00:10.254Z,9.80
2023-04-16T10:02:41.587Z,10.15
2023-04-16T10:05:08.824Z,9.73
2023-04-16T10:07:36.798Z,11.37
2023-04-16T10:10:04.239Z,10.50
2023-04-16T10:12:32.652Z,9.30
2023-04-16T10:14:59.181Z,9.68
2023-04-16T10:17:26.440Z,10.43
2023-04-16T10:19:54.697Z,11.03
2023-04-16T10:22:21.338Z,10.40
2023-04-16T10:24:48.788Z,10.40
2023-04-16T10:27:16.596Z,10.45
2023-04-16T10:29:44.286Z,10.55
2023-04-16T10:32:11.323Z,10.53
2023-04-16T10:34:37.942Z,10.88
2023-04-16T10:37:04.450Z,11.02
2023-04-16T10:39:31.006Z,10.60
2023-04-16T10:42:11.769Z,10.32
2023-04-16T10:44:39.997Z,22.20
2023-04-16T10:47:12.799Z,15.02
2023-04-16T10:49:40.254Z,12.27
2023-04-16T10:52:12.631Z,11.50
2023-04-16T10:54:40.306Z,13.63
2023-04-16T10:57:09.096Z,13.17
2023-04-16T10:59:39.754Z,10.20
2023-04-16T11:02:13.741Z,11.25
2023-04-16T11:04:44.238Z,11.10
2023-04-16T11:07:24.273Z,10.75
2023-04-16T11:10:05.197Z,13.90
2023-04-16T11:12:39.607Z,11.13
2023-04-16T11:15:11.151Z,11.48
2023-04-16T11:17:49.098Z,13.10
2023-04-16T11:20:23.984Z,11.27
2023-04-16T11:22:52.372Z,10.70
2023-04-16T11:25:31.611Z,11.98
2023-04-16T11:28:01.616Z,10.48
2023-04-16T11:30:35.396Z,10.75
2023-04-16T11:33:07.675Z,10.55
2023-04-16T11:35:34.107Z,10.53
2023-04-16T11:38:00.841Z,10.65
2023-04-16T11:40:31.221Z,9.73
2023-04-16T11:43:02.862Z,9.07
2023-04-16T11:45:29.383Z,9.02
2023-04-16T11:47:57.755Z,9.80
2023-04-16T11:50:28.667Z,10.65
2023-04-16T11:52:57.027Z,10.20
2023-04-16T11:55:24.146Z,8.82
2023-04-16T11:57:51.728Z,9.63
2023-04-16T12:00:24.680Z,9.27
2023-04-16T12:02:55.352Z,9.88
2023-04-16T12:05:31.325Z,10.90
2023-04-16T12:08:03.330Z,10.43
2023-04-16T12:10:30.833Z,12.25
2023-04-16T12:13:17.833Z,23.73
2023-04-16T12:15:51.855Z,16.42
2023-04-16T12:18:20.202Z,19.23
2023-04-16T12:20:47.578Z,15.90
2023-04-16T12:23:28.500Z,11.05
2023-04-16T12:25:55.920Z,10.70
2023-04-16T12:28:33.964Z,10.52
2023-04-16T12:31:01.793Z,11.35
2023-04-16T12:33:28.789Z,10.43
2023-04-16T12:35:55.516Z,11.20
2023-04-16T12:38:24.298Z,10.77
2023-04-16T12:40:51.965Z,11.10
2023-04-16T12:43:19.685Z,10.45
2023-04-16T12:45:46.304Z,11.13
2023-04-16T12:48:12.676Z,10.73
2023-04-16T12:50:39.785Z,10.53
2023-04-16T12:53:06.305Z,10.93
2023-04-16T12:55:32.821Z,10.45
2023-04-16T12:57:59.293Z,10.15
2023-04-16T13:00:25.822Z,9.75
2023-04-16T13:02:52.492Z,10.33
2023-04-16T13:05:19.591Z,10.25
2023-04-16T13:07:46.417Z,9.50
2023-04-16T13:10:13.501Z,9.70
2023-04-16T13:12:41.266Z,10.40
2023-04-16T13:15:08.506Z,10.60
2023-04-16T13:17:35.033Z,12.52
2023-04-16T13:20:01.751Z,9.68
2023-04-16T13:22:28.415Z,9.52
2023-04-16T13:24:55.426Z,10.18
2023-04-16T13:27:22.021Z,9.77
2023-04-16T13:29:48.570Z,10.85
2023-04-16T13:32:15.454Z,8.98
2023-04-16T13:34:42.689Z,9.55
2023-04-16T13:37:09.168Z,10.10
2023-04-16T13:39:36.011Z,8.40
2023-04-16T13:42:02.767Z,9.38
2023-04-16T13:44:29.453Z,8.43
2023-04-16T13:46:56.290Z,8.00
2023-04-16T13:49:23.542Z,8.18
2023-04-16T13:51:50.717Z,8.33
2023-04-16T13:54:17.276Z,7.95
2023-04-16T13:56:44.003Z,8.30
2023-04-16T13:59:11.021Z,12.10
2023-04-16T14:01:37.913Z,8.65
2023-04-16T14:04:06.796Z,8.03
2023-04-16T14:06:34.778Z,8.43
2023-04-16T14:09:01.985Z,7.20
2023-04-16T14:11:28.788Z,7.38
2023-04-16T14:14:13.999Z,7.28
2023-04-16T14:16:40.680Z,7.37
2023-04-16T14:19:07.201Z,7.80
2023-04-16T14:21:33.667Z,7.32
2023-04-16T14:24:00.284Z,6.88
2023-04-16T14:26:26.883Z,8.93
2023-04-16T14:28:53.465Z,7.67
2023-04-16T14:31:20.580Z,21.55
2023-04-16T14:33:47.301Z,11.45
2023-04-16T14:36:14.179Z,7.60
2023-04-16T14:38:40.865Z,7.68
2023-04-16T14:41:07.328Z,7.60
2023-04-16T14:43:34.155Z,7.10
2023-04-16T14:46:00.625Z,6.95
2023-04-16T14:48:27.164Z,7.90
2023-04-16T14:50:54.000Z,7.75
2023-04-16T14:53:20.549Z,7.80
2023-04-16T14:55:47.574Z,7.60
2023-04-16T14:58:14.145Z,8.05
2023-04-16T15:00:40.983Z,8.50
2023-04-16T15:03:07.701Z,7.72
2023-04-16T15:05:35.653Z,7.57
2023-04-16T15:08:02.449Z,7.57
2023-04-16T15:10:28.977Z,7.53
2023-04-16T15:12:55.471Z,7.10
2023-04-16T15:15:21.960Z,7.07
2023-04-16T15:17:50.276Z,7.50
2023-04-16T15:20:16.727Z,6.68
2023-04-16T15:22:43.150Z,6.75
2023-04-16T15:25:09.716Z,7.47
2023-04-16T15:27:36.615Z,7.10
2023-04-16T15:30:03.510Z,6.90
2023-04-16T15:32:31.061Z,6.78
2023-04-16T15:34:57.544Z,7.50
2023-04-16T15:37:24.153Z,8.10
2023-04-16T15:39:50.783Z,7.35
2023-04-16T15:42:17.350Z,7.73
2023-04-16T15:44:43.857Z,7.38
2023-04-16T15:47:10.759Z,8.43
2023-04-16T15:49:37.232Z,8.40
2023-04-16T15:52:04.002Z,7.40
2023-04-16T15:54:31.683Z,8.27
2023-04-16T15:56:58.955Z,8.00
2023-04-16T15:59:29.016Z,9.27
2023-04-16T16:01:55.949Z,9.27
2023-04-16T16:04:23.282Z,11.73
2023-04-16T16:06:50.858Z,14.73
2023-04-16T16:09:18.575Z,15.43
2023-04-16T16:11:45.133Z,12.38
2023-04-16T16:14:11.832Z,9.05
2023-04-16T16:16:39.632Z,7.32
2023-04-16T16:19:06.854Z,9.33
2023-04-16T16:21:33.513Z,9.45
2023-04-16T16:24:00.244Z,10.85
2023-04-16T16:26:27.950Z,12.07
2023-04-16T16:28:54.399Z,16.65
2023-04-16T16:31:21.093Z,14.57
2023-04-16T16:33:47.697Z,10.68
2023-04-16T16:36:14.296Z,8.98
2023-04-16T16:38:41.285Z,9.32
2023-04-16T16:41:08.107Z,8.82
2023-04-16T16:43:37.669Z,8.93
2023-04-16T16:46:05.695Z,9.07
2023-04-16T16:48:32.050Z,9.15
2023-04-16T16:50:58.615Z,9.43
2023-04-16T16:53:25.217Z,12.60
2023-04-16T16:55:51.648Z,10.00
2023-04-16T16:58:18.071Z,10.15
2023-04-16T17:00:44.601Z,9.48
2023-04-16T17:03:11.404Z,10.07
2023-04-16T17:05:38.177Z,10.25
2023-04-16T17:08:04.814Z,10.07
2023-04-16T17:10:31.259Z,10.75
2023-04-16T17:12:57.746Z,10.43
2023-04-16T17:15:24.325Z,10.77
2023-04-16T17:17:50.893Z,10.43
2023-04-16T17:20:17.531Z,11.00
2023-04-16T17:22:44.084Z,11.40
2023-04-16T17:25:10.922Z,11.30
2023-04-16T17:27:37.397Z,11.88
2023-04-16T17:30:05.462Z,12.55
2023-04-16T17:32:32.718Z,12.83
2023-04-16T17:35:01.120Z,11.05
2023-04-16T17:37:27.730Z,11.27
2023-04-16T17:39:54.240Z,11.55
2023-04-16T17:42:20.715Z,10.80
2023-04-16T17:44:47.571Z,14.03
2023-04-16T17:47:14.251Z,11.43
2023-04-16T17:49:40.950Z,10.90
2023-04-16T17:52:07.596Z,15.45
2023-04-16T17:54:34.370Z,21.10
2023-04-16T17:57:01.770Z,14.77
2023-04-16T17:59:28.545Z,11.60
2023-04-16T18:01:56.233Z,11.43
2023-04-16T18:04:23.060Z,10.77
2023-04-16T18:06:49.586Z,11.25
2023-04-16T18:09:16.134Z,11.20
2023-04-16T18:11:42.657Z,11.68
2023-04-16T18:14:11.499Z,11.43
2023-04-16T18:16:38.237Z,12.25
2023-04-16T18:19:05.522Z,11.35
2023-04-16T18:21:32.117Z,11.13
2023-04-16T18:24:00.838Z,12.02
2023-04-16T18:26:29.718Z,11.75
2023-04-16T18:28:56.643Z,11.10
2023-04-16T18:31:23.171Z,11.52
2023-04-16T18:33:57.252Z,32.20
2023-04-16T18:36:24.449Z,15.18
2023-04-16T18:39:01.021Z,10.98
2023-04-16T18:41:29.278Z,16.90
2023-04-16T18:43:55.974Z,19.00
2023-04-16T18:46:22.618Z,13.50
2023-04-16T18:48:49.230Z,14.18
2023-04-16T18:51:16.713Z,13.43
2023-04-16T18:53:44.320Z,13.38
2023-04-16T18:56:11.515Z,13.68
2023-04-16T18:58:38.090Z,14.90
2023-04-16T19:01:05.349Z,12.07
2023-04-16T19:03:32.082Z,14.20
2023-04-16T19:05:58.783Z,14.85
2023-04-16T19:08:25.361Z,13.57
2023-04-16T19:10:51.860Z,16.10
2023-04-16T19:13:18.333Z,14.25
2023-04-16T19:15:44.728Z,12.70
2023-04-16T19:18:11.208Z,14.25
2023-04-16T19:20:37.796Z,12.40
2023-04-16T19:23:05.596Z,15.57
2023-04-16T19:25:32.577Z,15.32
2023-04-16T19:27:59.375Z,12.75
2023-04-16T19:30:26.439Z,14.90
2023-04-16T19:32:55.182Z,19.08
2023-04-16T19:35:22.105Z,13.80
2023-04-16T19:37:48.688Z,12.02
2023-04-16T19:40:15.264Z,13.38
2023-04-16T19:42:41.954Z,13.13
2023-04-16T19:45:08.653Z,12.38
2023-04-16T19:47:35.559Z,11.57
2023-04-16T19:50:02.149Z,12.27
2023-04-16T19:52:28.619Z,13.50
2023-04-16T19:54:56.904Z,11.55
2023-04-16T20:03:16.647Z,12.05
2023-04-16T20:03:59.450Z,12.60
2023-04-16T20:05:43.091Z,11.93
2023-04-16T20:08:09.516Z,12.43
2023-04-16T20:10:36.091Z,12.40
2023-04-16T20:13:02.577Z,11.83
2023-04-16T20:15:28.993Z,12.57
2023-04-16T20:17:56.198Z,12.45
2023-04-16T20:20:23.564Z,12.82
2023-04-16T20:22:53.022Z,12.95
2023-04-16T20:25:19.667Z,12.07
2023-04-16T20:27:46.235Z,13.35
2023-04-16T20:30:13.456Z,12.70
2023-04-16T20:32:40.001Z,12.68
2023-04-16T20:35:10.398Z,12.45
2023-04-16T20:37:38.460Z,12.20
2023-04-16T20:40:07.785Z,13.80
2023-04-16T20:42:34.515Z,12.18
2023-04-16T20:45:01.327Z,13.43
2023-04-16T20:47:27.808Z,12.63
2023-04-16T20:49:54.910Z,12.83
2023-04-16T20:52:59.781Z,13.45
2023-04-16T20:58:16.665Z,13.07
2023-04-16T21:00:43.162Z,12.80
2023-04-16T21:03:09.754Z,13.17
2023-04-16T21:05:36.971Z,13.27
2023-04-16T21:08:03.466Z,12.85
2023-04-16T21:10:29.895Z,13.07
2023-04-16T21:12:56.308Z,12.25
2023-04-16T21:15:22.887Z,13.17
2023-04-16T21:17:49.480Z,12.15
2023-04-16T21:20:16.114Z,12.40
2023-04-16T21:22:42.636Z,11.82
2023-04-16T21:25:09.470Z,13.63
2023-04-16T21:27:35.827Z,14.47
2023-04-16T21:30:02.282Z,37.45
2023-04-16T21:32:28.883Z,26.67
2023-04-16T21:34:55.760Z,14.00
2023-04-16T21:37:22.222Z,13.80
2023-04-16T21:39:48.679Z,14.30
2023-04-16T21:42:15.545Z,13.80
2023-04-16T21:44:42.098Z,13.15
2023-04-16T21:47:08.598Z,13.88
2023-04-16T21:49:35.075Z,14.57
2023-04-16T21:52:02.523Z,15.17
2023-04-16T21:54:29.102Z,15.48
2023-04-16T21:56:56.633Z,16.17
2023-04-16T21:59:23.259Z,14.95
2023-04-16T22:01:49.751Z,14.57
2023-04-16T22:04:16.266Z,14.57
2023-04-16T22:06:43.177Z,14.75
2023-04-16T22:09:09.907Z,15.80
2023-04-16T22:11:36.577Z,13.63
2023-04-16T22:14:03.035Z,14.52
2023-04-16T22:16:29.546Z,15.27
2023-04-16T22:18:56.513Z,16.15
2023-04-16T22:21:22.949Z,16.70
2023-04-16T22:23:49.414Z,14.73
2023-04-16T22:26:16.032Z,14.60
2023-04-16T22:28:42.391Z,13.37
2023-04-16T22:31:10.075Z,15.02
2023-04-16T22:33:36.865Z,14.27
2023-04-16T22:36:03.437Z,13.75
2023-04-16T22:38:29.894Z,15.15
2023-04-16T22:40:56.352Z,15.67
2023-04-16T22:43:23.009Z,14.63
2023-04-16T22:45:49.520Z,13.95
2023-04-16T22:48:16.364Z,16.00
2023-04-16T22:50:48.441Z,15.65
2023-04-16T22:53:15.032Z,15.73
2023-04-16T22:55:41.593Z,16.80
2023-04-16T22:58:07.995Z,15.48
2023-04-16T23:00:34.480Z,14.90
2023-04-16T23:03:01.393Z,13.10
2023-04-16T23:05:28.001Z,16.50
2023-04-16T23:07:54.514Z,13.95
2023-04-16T23:10:20.937Z,14.75
2023-04-16T23:12:47.334Z,14.68
2023-04-16T23:15:14.458Z,15.50
2023-04-16T23:17:41.062Z,14.13
2023-04-16T23:20:09.967Z,14.50
2023-04-16T23:22:36.536Z,14.93
2023-04-16T23:25:03.067Z,14.93
2023-04-16T23:27:29.515Z,16.10
2023-04-16T23:29:55.895Z,14.77
2023-04-16T23:32:22.322Z,14.88
2023-04-16T23:34:48.806Z,16.35
2023-04-16T23:37:15.483Z,15.63
2023-04-16T23:39:41.831Z,16.65
2023-04-16T23:42:08.358Z,14.93
2023-04-16T23:44:34.793Z,14.23
2023-04-16T23:47:01.380Z,16.17
2023-04-16T23:49:28.163Z,15.85
2023-04-16T23:51:54.650Z,15.98
2023-04-16T23:54:21.392Z,17.37
2023-04-16T23:56:47.808Z,18.17
2023-04-16T23:59:14.642Z,15.45
